sensor_id;sensor_type;location;lat;lon;timestamp;P1;durP1;ratioP1;P2;durP2;ratioP2
46322;SDS011;32044;52.386;13.278;2022-11-15T00:00:42;104.45;;;48.15;;
46322;SDS011;32044;52.386;13.278;2022-11-15T00:03:07;92.97;;;46.58;;
46322;SDS011;32044;52.386;13.278;2022-11-15T00:05:34;100.97;;;48.65;;
46322;SDS011;32044;52.386;13.278;2022-11-15T00:08:00;100.15;;;47.92;;
46322;SDS011;32044;52.386;13.278;2022-11-15T00:10:25;92.63;;;46.50;;
46322;SDS011;32044;52.386;13.278;2022-11-15T00:12:51;95.70;;;46.00;;
46322;SDS011;32044;52.386;13.278;2022-11-15T00:15:16;94.95;;;45.25;;
46322;SDS011;32044;52.386;13.278;2022-11-15T00:17:41;86.97;;;43.50;;
46322;SDS011;32044;52.386;13.278;2022-11-15T00:20:07;75.07;;;40.83;;
46322;SDS011;32044;52.386;13.278;2022-11-15T00:22:33;67.05;;;36.08;;
46322;SDS011;32044;52.386;13.278;2022-11-15T00:24:58;67.90;;;35.55;;
46322;SDS011;32044;52.386;13.278;2022-11-15T00:27:23;83.75;;;44.92;;
46322;SDS011;32044;52.386;13.278;2022-11-15T00:29:48;91.07;;;44.47;;
46322;SDS011;32044;52.386;13.278;2022-11-15T00:32:14;100.80;;;47.97;;
46322;SDS011;32044;52.386;13.278;2022-11-15T00:34:39;97.78;;;47.80;;
46322;SDS011;32044;52.386;13.278;2022-11-15T00:37:05;104.57;;;49.92;;
46322;SDS011;32044;52.386;13.278;2022-11-15T00:39:30;110.35;;;52.63;;
46322;SDS011;32044;52.386;13.278;2022-11-15T00:41:56;121.80;;;53.40;;
46322;SDS011;32044;52.386;13.278;2022-11-15T00:44:21;127.75;;;56.72;;
46322;SDS011;32044;52.386;13.278;2022-11-15T00:46:46;127.32;;;55.20;;
46322;SDS011;32044;52.386;13.278;2022-11-15T00:49:12;138.50;;;55.53;;
46322;SDS011;32044;52.386;13.278;2022-11-15T00:51:37;134.95;;;56.15;;
46322;SDS011;32044;52.386;13.278;2022-11-15T00:54:02;120.07;;;51.65;;
46322;SDS011;32044;52.386;13.278;2022-11-15T00:56:27;129.32;;;55.97;;
46322;SDS011;32044;52.386;13.278;2022-11-15T00:58:53;130.93;;;56.28;;
46322;SDS011;32044;52.386;13.278;2022-11-15T01:01:18;131.65;;;56.75;;
46322;SDS011;32044;52.386;13.278;2022-11-15T01:03:43;106.47;;;49.33;;
46322;SDS011;32044;52.386;13.278;2022-11-15T01:06:09;97.28;;;45.33;;
46322;SDS011;32044;52.386;13.278;2022-11-15T01:08:35;87.35;;;42.92;;
46322;SDS011;32044;52.386;13.278;2022-11-15T01:11:04;108.80;;;49.30;;
46322;SDS011;32044;52.386;13.278;2022-11-15T01:13:31;124.50;;;53.10;;
46322;SDS011;32044;52.386;13.278;2022-11-15T01:15:57;150.25;;;57.70;;
46322;SDS011;32044;52.386;13.278;2022-11-15T01:18:23;168.57;;;63.92;;
46322;SDS011;32044;52.386;13.278;2022-11-15T01:20:48;163.80;;;67.55;;
46322;SDS011;32044;52.386;13.278;2022-11-15T01:23:14;183.43;;;66.47;;
46322;SDS011;32044;52.386;13.278;2022-11-15T01:25:39;168.13;;;65.47;;
46322;SDS011;32044;52.386;13.278;2022-11-15T01:28:04;170.50;;;61.63;;
46322;SDS011;32044;52.386;13.278;2022-11-15T01:30:30;154.65;;;61.08;;
46322;SDS011;32044;52.386;13.278;2022-11-15T01:32:55;166.45;;;63.33;;
46322;SDS011;32044;52.386;13.278;2022-11-15T01:35:20;171.88;;;64.25;;
46322;SDS011;32044;52.386;13.278;2022-11-15T01:37:46;177.13;;;64.78;;
46322;SDS011;32044;52.386;13.278;2022-11-15T01:40:11;178.48;;;64.15;;
46322;SDS011;32044;52.386;13.278;2022-11-15T01:42:37;185.70;;;70.80;;
46322;SDS011;32044;52.386;13.278;2022-11-15T01:45:02;182.23;;;70.85;;
46322;SDS011;32044;52.386;13.278;2022-11-15T01:47:28;182.38;;;65.75;;
46322;SDS011;32044;52.386;13.278;2022-11-15T01:50:06;177.98;;;67.95;;
46322;SDS011;32044;52.386;13.278;2022-11-15T01:52:33;164.00;;;62.08;;
46322;SDS011;32044;52.386;13.278;2022-11-15T01:57:30;146.88;;;58.35;;
46322;SDS011;32044;52.386;13.278;2022-11-15T01:59:55;161.98;;;60.35;;
46322;SDS011;32044;52.386;13.278;2022-11-15T02:02:22;140.73;;;54.80;;
46322;SDS011;32044;52.386;13.278;2022-11-15T02:04:47;134.23;;;52.85;;
46322;SDS011;32044;52.386;13.278;2022-11-15T02:07:13;122.05;;;49.35;;
46322;SDS011;32044;52.386;13.278;2022-11-15T02:09:40;113.47;;;48.30;;
46322;SDS011;32044;52.386;13.278;2022-11-15T02:12:06;89.57;;;40.33;;
46322;SDS011;32044;52.386;13.278;2022-11-15T02:14:33;98.43;;;43.42;;
46322;SDS011;32044;52.386;13.278;2022-11-15T02:17:07;89.07;;;40.45;;
46322;SDS011;32044;52.386;13.278;2022-11-15T02:25:25;73.88;;;33.60;;
46322;SDS011;32044;52.386;13.278;2022-11-15T02:31:00;58.60;;;26.33;;
46322;SDS011;32044;52.386;13.278;2022-11-15T02:36:29;95.95;;;41.80;;
46322;SDS011;32044;52.386;13.278;2022-11-15T02:39:10;100.97;;;43.35;;
46322;SDS011;32044;52.386;13.278;2022-11-15T02:41:47;101.60;;;44.63;;
46322;SDS011;32044;52.386;13.278;2022-11-15T02:44:19;98.65;;;43.03;;
46322;SDS011;32044;52.386;13.278;2022-11-15T02:46:52;101.38;;;42.30;;
46322;SDS011;32044;52.386;13.278;2022-11-15T02:49:38;122.38;;;45.50;;
46322;SDS011;32044;52.386;13.278;2022-11-15T02:52:06;128.15;;;50.60;;
46322;SDS011;32044;52.386;13.278;2022-11-15T02:54:31;128.40;;;48.78;;
46322;SDS011;32044;52.386;13.278;2022-11-15T02:56:59;113.82;;;46.72;;
46322;SDS011;32044;52.386;13.278;2022-11-15T03:07:32;175.93;;;61.83;;
46322;SDS011;32044;52.386;13.278;2022-11-15T03:10:05;143.57;;;54.10;;
46322;SDS011;32044;52.386;13.278;2022-11-15T03:15:31;154.55;;;55.22;;
46322;SDS011;32044;52.386;13.278;2022-11-15T03:18:15;128.63;;;48.22;;
46322;SDS011;32044;52.386;13.278;2022-11-15T03:20:44;112.85;;;47.28;;
46322;SDS011;32044;52.386;13.278;2022-11-15T03:23:11;117.20;;;51.88;;
46322;SDS011;32044;52.386;13.278;2022-11-15T03:25:38;113.05;;;50.63;;
46322;SDS011;32044;52.386;13.278;2022-11-15T03:28:06;140.70;;;56.13;;
46322;SDS011;32044;52.386;13.278;2022-11-15T03:30:34;131.95;;;53.53;;
46322;SDS011;32044;52.386;13.278;2022-11-15T03:33:00;123.03;;;53.50;;
46322;SDS011;32044;52.386;13.278;2022-11-15T03:35:27;146.35;;;55.90;;
46322;SDS011;32044;52.386;13.278;2022-11-15T03:37:57;133.50;;;51.17;;
46322;SDS011;32044;52.386;13.278;2022-11-15T03:40:38;127.28;;;48.60;;
46322;SDS011;32044;52.386;13.278;2022-11-15T03:45:36;109.07;;;46.70;;
46322;SDS011;32044;52.386;13.278;2022-11-15T03:48:06;111.97;;;46.55;;
46322;SDS011;32044;52.386;13.278;2022-11-15T03:50:34;131.98;;;50.15;;
46322;SDS011;32044;52.386;13.278;2022-11-15T03:53:00;121.03;;;50.15;;
46322;SDS011;32044;52.386;13.278;2022-11-15T03:55:25;150.10;;;57.00;;
46322;SDS011;32044;52.386;13.278;2022-11-15T03:57:52;193.23;;;63.45;;
46322;SDS011;32044;52.386;13.278;2022-11-15T04:00:19;168.57;;;60.53;;
46322;SDS011;32044;52.386;13.278;2022-11-15T04:02:45;163.13;;;57.38;;
46322;SDS011;32044;52.386;13.278;2022-11-15T04:05:10;167.20;;;60.30;;
46322;SDS011;32044;52.386;13.278;2022-11-15T04:07:35;164.40;;;61.33;;
46322;SDS011;32044;52.386;13.278;2022-11-15T04:10:00;173.05;;;59.47;;
46322;SDS011;32044;52.386;13.278;2022-11-15T04:12:29;147.55;;;58.20;;
46322;SDS011;32044;52.386;13.278;2022-11-15T04:14:58;147.98;;;52.83;;
46322;SDS011;32044;52.386;13.278;2022-11-15T04:17:43;158.18;;;57.40;;
46322;SDS011;32044;52.386;13.278;2022-11-15T04:23:01;143.35;;;52.70;;
46322;SDS011;32044;52.386;13.278;2022-11-15T04:25:47;137.38;;;51.85;;
46322;SDS011;32044;52.386;13.278;2022-11-15T04:28:15;118.35;;;47.88;;
46322;SDS011;32044;52.386;13.278;2022-11-15T04:30:40;114.97;;;46.80;;
46322;SDS011;32044;52.386;13.278;2022-11-15T04:33:05;98.95;;;43.65;;
46322;SDS011;32044;52.386;13.278;2022-11-15T04:35:30;82.15;;;39.03;;
46322;SDS011;32044;52.386;13.278;2022-11-15T04:37:57;87.45;;;39.90;;
46322;SDS011;32044;52.386;13.278;2022-11-15T04:40:22;77.05;;;37.65;;
46322;SDS011;32044;52.386;13.278;2022-11-15T04:42:48;81.43;;;37.15;;
46322;SDS011;32044;52.386;13.278;2022-11-15T04:45:13;84.00;;;38.38;;
46322;SDS011;32044;52.386;13.278;2022-11-15T04:47:38;81.10;;;36.45;;
46322;SDS011;32044;52.386;13.278;2022-11-15T04:50:04;61.15;;;32.08;;
46322;SDS011;32044;52.386;13.278;2022-11-15T04:52:29;62.38;;;31.25;;
46322;SDS011;32044;52.386;13.278;2022-11-15T04:54:55;78.68;;;36.88;;
46322;SDS011;32044;52.386;13.278;2022-11-15T04:57:20;74.13;;;35.53;;
46322;SDS011;32044;52.386;13.278;2022-11-15T04:59:45;77.40;;;37.45;;
46322;SDS011;32044;52.386;13.278;2022-11-15T05:02:11;87.90;;;38.08;;
46322;SDS011;32044;52.386;13.278;2022-11-15T05:04:36;82.20;;;37.42;;
46322;SDS011;32044;52.386;13.278;2022-11-15T05:07:01;77.53;;;35.85;;
46322;SDS011;32044;52.386;13.278;2022-11-15T05:09:28;79.60;;;37.53;;
46322;SDS011;32044;52.386;13.278;2022-11-15T05:11:54;81.45;;;35.90;;
46322;SDS011;32044;52.386;13.278;2022-11-15T05:14:19;75.43;;;34.67;;
46322;SDS011;32044;52.386;13.278;2022-11-15T05:16:44;74.85;;;37.05;;
46322;SDS011;32044;52.386;13.278;2022-11-15T05:19:10;70.72;;;33.72;;
46322;SDS011;32044;52.386;13.278;2022-11-15T05:21:35;75.45;;;34.45;;
46322;SDS011;32044;52.386;13.278;2022-11-15T05:24:01;79.20;;;37.20;;
46322;SDS011;32044;52.386;13.278;2022-11-15T05:26:26;81.78;;;39.50;;
46322;SDS011;32044;52.386;13.278;2022-11-15T05:28:55;80.68;;;37.97;;
46322;SDS011;32044;52.386;13.278;2022-11-15T05:31:22;77.13;;;36.60;;
46322;SDS011;32044;52.386;13.278;2022-11-15T05:33:48;70.25;;;35.05;;
46322;SDS011;32044;52.386;13.278;2022-11-15T05:36:18;73.97;;;35.35;;
46322;SDS011;32044;52.386;13.278;2022-11-15T05:38:46;79.50;;;38.25;;
46322;SDS011;32044;52.386;13.278;2022-11-15T05:41:13;75.40;;;38.22;;
46322;SDS011;32044;52.386;13.278;2022-11-15T05:43:38;73.93;;;36.05;;
46322;SDS011;32044;52.386;13.278;2022-11-15T05:46:04;75.57;;;37.90;;
46322;SDS011;32044;52.386;13.278;2022-11-15T05:48:30;77.57;;;39.70;;
46322;SDS011;32044;52.386;13.278;2022-11-15T05:50:55;93.90;;;41.88;;
46322;SDS011;32044;52.386;13.278;2022-11-15T05:53:21;84.78;;;39.22;;
46322;SDS011;32044;52.386;13.278;2022-11-15T05:55:48;72.38;;;36.53;;
46322;SDS011;32044;52.386;13.278;2022-11-15T05:58:13;80.10;;;37.20;;
46322;SDS011;32044;52.386;13.278;2022-11-15T06:00:39;75.80;;;36.45;;
46322;SDS011;32044;52.386;13.278;2022-11-15T06:03:04;72.25;;;35.83;;
46322;SDS011;32044;52.386;13.278;2022-11-15T06:05:29;84.78;;;38.97;;
46322;SDS011;32044;52.386;13.278;2022-11-15T06:07:58;76.32;;;39.42;;
46322;SDS011;32044;52.386;13.278;2022-11-15T06:10:24;85.68;;;40.72;;
46322;SDS011;32044;52.386;13.278;2022-11-15T06:13:22;84.40;;;39.85;;
46322;SDS011;32044;52.386;13.278;2022-11-15T06:15:41;76.35;;;37.35;;
46322;SDS011;32044;52.386;13.278;2022-11-15T06:18:06;79.68;;;38.50;;
46322;SDS011;32044;52.386;13.278;2022-11-15T06:20:31;72.85;;;37.20;;
46322;SDS011;32044;52.386;13.278;2022-11-15T06:22:57;75.03;;;37.35;;
46322;SDS011;32044;52.386;13.278;2022-11-15T06:25:27;76.10;;;36.65;;
46322;SDS011;32044;52.386;13.278;2022-11-15T06:27:57;66.45;;;34.42;;
46322;SDS011;32044;52.386;13.278;2022-11-15T06:30:23;71.28;;;35.85;;
46322;SDS011;32044;52.386;13.278;2022-11-15T06:32:49;75.38;;;38.70;;
46322;SDS011;32044;52.386;13.278;2022-11-15T06:35:15;84.10;;;41.17;;
46322;SDS011;32044;52.386;13.278;2022-11-15T06:37:40;98.05;;;47.03;;
46322;SDS011;32044;52.386;13.278;2022-11-15T06:40:06;116.45;;;48.10;;
46322;SDS011;32044;52.386;13.278;2022-11-15T06:42:33;121.25;;;51.30;;
46322;SDS011;32044;52.386;13.278;2022-11-15T06:44:58;119.78;;;51.30;;
46322;SDS011;32044;52.386;13.278;2022-11-15T06:47:24;106.20;;;46.17;;
46322;SDS011;32044;52.386;13.278;2022-11-15T06:49:49;98.03;;;44.03;;
46322;SDS011;32044;52.386;13.278;2022-11-15T06:52:14;89.65;;;42.55;;
46322;SDS011;32044;52.386;13.278;2022-11-15T06:54:39;74.13;;;39.83;;
46322;SDS011;32044;52.386;13.278;2022-11-15T06:57:05;73.30;;;37.80;;
46322;SDS011;32044;52.386;13.278;2022-11-15T06:59:30;78.45;;;41.28;;
46322;SDS011;32044;52.386;13.278;2022-11-15T07:01:55;68.72;;;36.03;;
46322;SDS011;32044;52.386;13.278;2022-11-15T07:04:20;67.75;;;36.65;;
46322;SDS011;32044;52.386;13.278;2022-11-15T07:06:48;63.08;;;34.03;;
46322;SDS011;32044;52.386;13.278;2022-11-15T07:09:14;58.38;;;33.13;;
46322;SDS011;32044;52.386;13.278;2022-11-15T07:11:39;61.65;;;32.97;;
46322;SDS011;32044;52.386;13.278;2022-11-15T07:14:04;66.50;;;35.53;;
46322;SDS011;32044;52.386;13.278;2022-11-15T07:16:29;66.97;;;36.47;;
46322;SDS011;32044;52.386;13.278;2022-11-15T07:18:55;66.15;;;36.85;;
46322;SDS011;32044;52.386;13.278;2022-11-15T07:21:20;72.43;;;40.60;;
46322;SDS011;32044;52.386;13.278;2022-11-15T07:23:45;67.00;;;38.03;;
46322;SDS011;32044;52.386;13.278;2022-11-15T07:26:11;63.28;;;35.85;;
46322;SDS011;32044;52.386;13.278;2022-11-15T07:28:36;64.15;;;36.05;;
46322;SDS011;32044;52.386;13.278;2022-11-15T07:31:02;56.30;;;33.72;;
46322;SDS011;32044;52.386;13.278;2022-11-15T07:33:28;56.50;;;32.88;;
46322;SDS011;32044;52.386;13.278;2022-11-15T07:35:57;51.63;;;30.50;;
46322;SDS011;32044;52.386;13.278;2022-11-15T07:38:23;46.42;;;28.73;;
46322;SDS011;32044;52.386;13.278;2022-11-15T07:40:55;53.65;;;30.65;;
46322;SDS011;32044;52.386;13.278;2022-11-15T07:43:24;52.35;;;31.95;;
46322;SDS011;32044;52.386;13.278;2022-11-15T07:45:49;49.55;;;30.58;;
46322;SDS011;32044;52.386;13.278;2022-11-15T07:48:15;48.88;;;30.65;;
46322;SDS011;32044;52.386;13.278;2022-11-15T07:50:40;51.28;;;31.67;;
46322;SDS011;32044;52.386;13.278;2022-11-15T07:53:07;52.50;;;33.28;;
46322;SDS011;32044;52.386;13.278;2022-11-15T07:55:33;51.20;;;30.98;;
46322;SDS011;32044;52.386;13.278;2022-11-15T07:58:05;39.90;;;25.67;;
46322;SDS011;32044;52.386;13.278;2022-11-15T08:00:31;47.10;;;28.83;;
46322;SDS011;32044;52.386;13.278;2022-11-15T08:03:04;48.88;;;29.90;;
46322;SDS011;32044;52.386;13.278;2022-11-15T08:05:30;51.78;;;29.00;;
46322;SDS011;32044;52.386;13.278;2022-11-15T08:07:56;50.78;;;28.42;;
46322;SDS011;32044;52.386;13.278;2022-11-15T08:10:21;50.40;;;30.48;;
46322;SDS011;32044;52.386;13.278;2022-11-15T08:12:47;43.88;;;28.98;;
46322;SDS011;32044;52.386;13.278;2022-11-15T08:15:12;41.90;;;28.08;;
46322;SDS011;32044;52.386;13.278;2022-11-15T08:17:37;38.90;;;26.42;;
46322;SDS011;32044;52.386;13.278;2022-11-15T08:20:02;41.47;;;28.98;;
46322;SDS011;32044;52.386;13.278;2022-11-15T08:22:28;40.25;;;26.73;;
46322;SDS011;32044;52.386;13.278;2022-11-15T08:24:53;38.92;;;27.35;;
46322;SDS011;32044;52.386;13.278;2022-11-15T08:27:19;41.13;;;28.23;;
46322;SDS011;32044;52.386;13.278;2022-11-15T08:29:44;39.63;;;28.67;;
46322;SDS011;32044;52.386;13.278;2022-11-15T08:32:10;41.90;;;28.48;;
46322;SDS011;32044;52.386;13.278;2022-11-15T08:34:36;39.85;;;27.20;;
46322;SDS011;32044;52.386;13.278;2022-11-15T08:37:02;39.80;;;27.50;;
46322;SDS011;32044;52.386;13.278;2022-11-15T08:39:27;39.45;;;27.58;;
46322;SDS011;32044;52.386;13.278;2022-11-15T08:41:52;44.40;;;28.30;;
46322;SDS011;32044;52.386;13.278;2022-11-15T08:44:18;41.72;;;27.45;;
46322;SDS011;32044;52.386;13.278;2022-11-15T08:46:45;40.28;;;28.17;;
46322;SDS011;32044;52.386;13.278;2022-11-15T08:49:10;39.65;;;26.83;;
46322;SDS011;32044;52.386;13.278;2022-11-15T08:51:36;39.50;;;26.63;;
46322;SDS011;32044;52.386;13.278;2022-11-15T08:54:01;40.00;;;27.92;;
46322;SDS011;32044;52.386;13.278;2022-11-15T08:56:26;41.15;;;28.70;;
46322;SDS011;32044;52.386;13.278;2022-11-15T08:58:52;36.03;;;26.15;;
46322;SDS011;32044;52.386;13.278;2022-11-15T09:01:17;39.33;;;27.38;;
46322;SDS011;32044;52.386;13.278;2022-11-15T09:03:44;41.80;;;28.48;;
46322;SDS011;32044;52.386;13.278;2022-11-15T09:06:09;40.00;;;27.05;;
46322;SDS011;32044;52.386;13.278;2022-11-15T09:08:34;37.13;;;25.58;;
46322;SDS011;32044;52.386;13.278;2022-11-15T09:11:02;36.05;;;25.55;;
46322;SDS011;32044;52.386;13.278;2022-11-15T09:13:29;35.30;;;26.90;;
46322;SDS011;32044;52.386;13.278;2022-11-15T09:15:57;34.42;;;25.10;;
46322;SDS011;32044;52.386;13.278;2022-11-15T09:18:23;35.78;;;24.45;;
46322;SDS011;32044;52.386;13.278;2022-11-15T09:20:48;33.42;;;24.77;;
46322;SDS011;32044;52.386;13.278;2022-11-15T09:23:13;35.95;;;25.90;;
46322;SDS011;32044;52.386;13.278;2022-11-15T09:25:39;35.90;;;25.33;;
46322;SDS011;32044;52.386;13.278;2022-11-15T09:28:07;33.65;;;24.33;;
46322;SDS011;32044;52.386;13.278;2022-11-15T09:30:33;33.38;;;23.35;;
46322;SDS011;32044;52.386;13.278;2022-11-15T09:32:58;32.50;;;23.73;;
46322;SDS011;32044;52.386;13.278;2022-11-15T09:35:23;30.25;;;22.77;;
46322;SDS011;32044;52.386;13.278;2022-11-15T09:37:49;34.42;;;24.35;;
46322;SDS011;32044;52.386;13.278;2022-11-15T09:40:14;32.30;;;23.50;;
46322;SDS011;32044;52.386;13.278;2022-11-15T09:42:48;36.78;;;23.48;;
46322;SDS011;32044;52.386;13.278;2022-11-15T09:48:15;29.42;;;22.08;;
46322;SDS011;32044;52.386;13.278;2022-11-15T09:50:50;30.27;;;22.27;;
46322;SDS011;32044;52.386;13.278;2022-11-15T09:53:29;31.58;;;23.10;;
46322;SDS011;32044;52.386;13.278;2022-11-15T09:56:05;34.38;;;23.17;;
46322;SDS011;32044;52.386;13.278;2022-11-15T10:04:32;28.73;;;19.85;;
46322;SDS011;32044;52.386;13.278;2022-11-15T10:07:00;27.80;;;18.85;;
46322;SDS011;32044;52.386;13.278;2022-11-15T10:09:36;29.38;;;19.75;;
46322;SDS011;32044;52.386;13.278;2022-11-15T10:12:06;31.33;;;19.33;;
46322;SDS011;32044;52.386;13.278;2022-11-15T10:14:32;26.25;;;18.63;;
46322;SDS011;32044;52.386;13.278;2022-11-15T10:19:40;24.33;;;17.10;;
46322;SDS011;32044;52.386;13.278;2022-11-15T10:27:38;24.65;;;17.77;;
46322;SDS011;32044;52.386;13.278;2022-11-15T10:30:14;26.15;;;17.45;;
46322;SDS011;32044;52.386;13.278;2022-11-15T10:32:43;24.63;;;17.92;;
46322;SDS011;32044;52.386;13.278;2022-11-15T10:35:15;25.67;;;17.50;;
46322;SDS011;32044;52.386;13.278;2022-11-15T10:37:51;27.40;;;17.17;;
46322;SDS011;32044;52.386;13.278;2022-11-15T10:40:18;23.83;;;16.80;;
46322;SDS011;32044;52.386;13.278;2022-11-15T10:42:46;24.27;;;16.08;;
46322;SDS011;32044;52.386;13.278;2022-11-15T10:45:22;23.38;;;17.17;;
46322;SDS011;32044;52.386;13.278;2022-11-15T10:47:49;23.88;;;17.63;;
46322;SDS011;32044;52.386;13.278;2022-11-15T10:50:31;21.35;;;16.23;;
46322;SDS011;32044;52.386;13.278;2022-11-15T10:52:57;24.95;;;16.38;;
46322;SDS011;32044;52.386;13.278;2022-11-15T10:55:27;21.05;;;15.68;;
46322;SDS011;32044;52.386;13.278;2022-11-15T10:57:55;23.20;;;17.02;;
46322;SDS011;32044;52.386;13.278;2022-11-15T11:00:29;25.30;;;16.67;;
46322;SDS011;32044;52.386;13.278;2022-11-15T11:02:57;22.10;;;15.20;;
46322;SDS011;32044;52.386;13.278;2022-11-15T11:05:29;20.10;;;12.30;;
46322;SDS011;32044;52.386;13.278;2022-11-15T11:08:09;21.98;;;16.98;;
46322;SDS011;32044;52.386;13.278;2022-11-15T11:10:58;21.35;;;14.68;;
46322;SDS011;32044;52.386;13.278;2022-11-15T11:13:26;26.10;;;15.43;;
46322;SDS011;32044;52.386;13.278;2022-11-15T11:15:58;23.00;;;14.13;;
46322;SDS011;32044;52.386;13.278;2022-11-15T11:18:33;20.50;;;14.77;;
46322;SDS011;32044;52.386;13.278;2022-11-15T11:21:07;19.35;;;14.25;;
46322;SDS011;32044;52.386;13.278;2022-11-15T11:23:38;17.92;;;13.15;;
46322;SDS011;32044;52.386;13.278;2022-11-15T11:26:18;18.92;;;15.10;;
46322;SDS011;32044;52.386;13.278;2022-11-15T11:29:12;22.58;;;14.23;;
46322;SDS011;32044;52.386;13.278;2022-11-15T11:31:51;21.20;;;14.77;;
46322;SDS011;32044;52.386;13.278;2022-11-15T11:37:24;17.50;;;12.82;;
46322;SDS011;32044;52.386;13.278;2022-11-15T11:43:14;17.05;;;12.38;;
46322;SDS011;32044;52.386;13.278;2022-11-15T11:48:27;18.50;;;12.63;;
46322;SDS011;32044;52.386;13.278;2022-11-15T11:51:18;19.02;;;13.18;;
46322;SDS011;32044;52.386;13.278;2022-11-15T11:54:03;15.18;;;12.10;;
46322;SDS011;32044;52.386;13.278;2022-11-15T11:56:31;16.73;;;12.48;;
46322;SDS011;32044;52.386;13.278;2022-11-15T11:59:00;16.95;;;11.18;;
46322;SDS011;32044;52.386;13.278;2022-11-15T12:01:36;14.43;;;10.35;;
46322;SDS011;32044;52.386;13.278;2022-11-15T12:06:53;15.20;;;10.90;;
46322;SDS011;32044;52.386;13.278;2022-11-15T12:17:35;13.13;;;10.18;;
46322;SDS011;32044;52.386;13.278;2022-11-15T12:20:06;15.15;;;10.82;;
46322;SDS011;32044;52.386;13.278;2022-11-15T12:22:43;15.52;;;10.48;;
46322;SDS011;32044;52.386;13.278;2022-11-15T12:25:42;13.07;;;10.43;;
46322;SDS011;32044;52.386;13.278;2022-11-15T12:28:24;20.70;;;11.60;;
46322;SDS011;32044;52.386;13.278;2022-11-15T12:31:24;18.38;;;11.75;;
46322;SDS011;32044;52.386;13.278;2022-11-15T12:34:28;14.65;;;11.68;;
46322;SDS011;32044;52.386;13.278;2022-11-15T12:37:01;14.40;;;9.80;;
46322;SDS011;32044;52.386;13.278;2022-11-15T12:42:42;12.50;;;10.00;;
46322;SDS011;32044;52.386;13.278;2022-11-15T12:58:44;13.65;;;9.73;;
46322;SDS011;32044;52.386;13.278;2022-11-15T13:06:41;11.82;;;8.98;;
46322;SDS011;32044;52.386;13.278;2022-11-15T13:12:01;14.23;;;9.48;;
46322;SDS011;32044;52.386;13.278;2022-11-15T13:14:52;13.57;;;9.10;;
46322;SDS011;32044;52.386;13.278;2022-11-15T13:19:45;12.23;;;8.83;;
46322;SDS011;32044;52.386;13.278;2022-11-15T13:22:11;15.15;;;9.25;;
46322;SDS011;32044;52.386;13.278;2022-11-15T13:24:55;15.70;;;9.32;;
46322;SDS011;32044;52.386;13.278;2022-11-15T13:27:20;13.90;;;8.52;;
46322;SDS011;32044;52.386;13.278;2022-11-15T13:29:46;12.23;;;8.65;;
46322;SDS011;32044;52.386;13.278;2022-11-15T13:32:11;11.88;;;8.45;;
46322;SDS011;32044;52.386;13.278;2022-11-15T13:34:38;12.20;;;8.50;;
46322;SDS011;32044;52.386;13.278;2022-11-15T13:37:03;13.30;;;9.00;;
46322;SDS011;32044;52.386;13.278;2022-11-15T13:39:30;15.65;;;9.20;;
46322;SDS011;32044;52.386;13.278;2022-11-15T13:41:56;12.07;;;9.43;;
46322;SDS011;32044;52.386;13.278;2022-11-15T13:44:32;14.05;;;8.75;;
46322;SDS011;32044;52.386;13.278;2022-11-15T13:47:05;10.63;;;8.20;;
46322;SDS011;32044;52.386;13.278;2022-11-15T13:49:40;10.98;;;7.72;;
46322;SDS011;32044;52.386;13.278;2022-11-15T13:52:15;10.65;;;8.10;;
46322;SDS011;32044;52.386;13.278;2022-11-15T13:54:46;11.05;;;8.23;;
46322;SDS011;32044;52.386;13.278;2022-11-15T13:57:23;14.50;;;8.85;;
46322;SDS011;32044;52.386;13.278;2022-11-15T13:59:51;11.15;;;7.38;;
46322;SDS011;32044;52.386;13.278;2022-11-15T14:02:26;13.45;;;9.73;;
46322;SDS011;32044;52.386;13.278;2022-11-15T14:04:55;13.68;;;9.15;;
46322;SDS011;32044;52.386;13.278;2022-11-15T14:07:25;16.52;;;9.40;;
46322;SDS011;32044;52.386;13.278;2022-11-15T14:09:52;14.52;;;10.15;;
46322;SDS011;32044;52.386;13.278;2022-11-15T14:12:25;13.88;;;10.25;;
46322;SDS011;32044;52.386;13.278;2022-11-15T14:14:52;17.63;;;12.10;;
46322;SDS011;32044;52.386;13.278;2022-11-15T14:17:33;16.42;;;12.20;;
46322;SDS011;32044;52.386;13.278;2022-11-15T14:20:00;15.90;;;12.60;;
46322;SDS011;32044;52.386;13.278;2022-11-15T14:22:29;17.27;;;13.00;;
46322;SDS011;32044;52.386;13.278;2022-11-15T14:27:44;20.02;;;13.63;;
46322;SDS011;32044;52.386;13.278;2022-11-15T14:30:29;21.95;;;13.32;;
46322;SDS011;32044;52.386;13.278;2022-11-15T14:32:55;21.00;;;13.73;;
46322;SDS011;32044;52.386;13.278;2022-11-15T14:35:21;20.38;;;13.50;;
46322;SDS011;32044;52.386;13.278;2022-11-15T14:37:47;24.42;;;15.35;;
46322;SDS011;32044;52.386;13.278;2022-11-15T14:40:16;22.10;;;15.25;;
46322;SDS011;32044;52.386;13.278;2022-11-15T14:42:46;21.25;;;14.35;;
46322;SDS011;32044;52.386;13.278;2022-11-15T14:45:16;42.17;;;21.10;;
46322;SDS011;32044;52.386;13.278;2022-11-15T14:47:43;26.70;;;16.70;;
46322;SDS011;32044;52.386;13.278;2022-11-15T14:50:18;24.17;;;15.95;;
46322;SDS011;32044;52.386;13.278;2022-11-15T14:52:44;29.92;;;18.23;;
46322;SDS011;32044;52.386;13.278;2022-11-15T14:55:16;26.42;;;17.88;;
46322;SDS011;32044;52.386;13.278;2022-11-15T14:57:44;26.42;;;17.30;;
46322;SDS011;32044;52.386;13.278;2022-11-15T15:00:10;22.20;;;17.20;;
46322;SDS011;32044;52.386;13.278;2022-11-15T15:02:36;27.17;;;17.73;;
46322;SDS011;32044;52.386;13.278;2022-11-15T15:05:01;26.80;;;17.52;;
46322;SDS011;32044;52.386;13.278;2022-11-15T15:07:32;24.60;;;16.95;;
46322;SDS011;32044;52.386;13.278;2022-11-15T15:09:57;26.02;;;16.80;;
46322;SDS011;32044;52.386;13.278;2022-11-15T15:12:22;25.08;;;17.85;;
46322;SDS011;32044;52.386;13.278;2022-11-15T15:14:49;24.42;;;16.33;;
46322;SDS011;32044;52.386;13.278;2022-11-15T15:17:15;26.67;;;17.73;;
46322;SDS011;32044;52.386;13.278;2022-11-15T15:19:40;68.80;;;41.70;;
46322;SDS011;32044;52.386;13.278;2022-11-15T15:22:08;35.17;;;24.33;;
46322;SDS011;32044;52.386;13.278;2022-11-15T15:24:36;27.83;;;19.00;;
46322;SDS011;32044;52.386;13.278;2022-11-15T15:27:01;25.75;;;17.95;;
46322;SDS011;32044;52.386;13.278;2022-11-15T15:29:26;28.77;;;17.25;;
46322;SDS011;32044;52.386;13.278;2022-11-15T15:31:51;26.30;;;17.33;;
46322;SDS011;32044;52.386;13.278;2022-11-15T15:34:17;26.50;;;17.23;;
46322;SDS011;32044;52.386;13.278;2022-11-15T15:36:42;23.67;;;16.52;;
46322;SDS011;32044;52.386;13.278;2022-11-15T15:39:08;25.73;;;16.58;;
46322;SDS011;32044;52.386;13.278;2022-11-15T15:41:35;24.48;;;16.80;;
46322;SDS011;32044;52.386;13.278;2022-11-15T15:44:00;20.17;;;14.48;;
46322;SDS011;32044;52.386;13.278;2022-11-15T15:46:26;22.25;;;17.20;;
46322;SDS011;32044;52.386;13.278;2022-11-15T15:48:51;19.73;;;15.20;;
46322;SDS011;32044;52.386;13.278;2022-11-15T15:51:16;19.77;;;14.85;;